sensor_id;sensor_type;location;lat;lon;timestamp;temperature;humidity
12872;DHT22;6504;53.766;9.626;2022-12-16T00:01:23;-0.80;99.90
12872;DHT22;6504;53.766;9.626;2022-12-16T00:03:53;-0.80;99.90
12872;DHT22;6504;53.766;9.626;2022-12-16T00:06:22;-0.80;99.90
12872;DHT22;6504;53.766;9.626;2022-12-16T00:08:51;-0.80;99.90
12872;DHT22;6504;53.766;9.626;2022-12-16T00:11:20;-0.80;99.90
12872;DHT22;6504;53.766;9.626;2022-12-16T00:13:50;-0.80;99.90
12872;DHT22;6504;53.766;9.626;2022-12-16T00:16:20;-0.80;99.90
12872;DHT22;6504;53.766;9.626;2022-12-16T00:18:49;-0.80;99.90
12872;DHT22;6504;53.766;9.626;2022-12-16T00:21:18;-0.80;99.90
12872;DHT22;6504;53.766;9.626;2022-12-16T00:23:46;-0.80;99.90
12872;DHT22;6504;53.766;9.626;2022-12-16T00:26:14;-0.80;99.90
12872;DHT22;6504;53.766;9.626;2022-12-16T00:28:42;-0.80;99.90
12872;DHT22;6504;53.766;9.626;2022-12-16T00:31:12;-0.80;99.90
12872;DHT22;6504;53.766;9.626;2022-12-16T00:33:40;-0.80;99.90
12872;DHT22;6504;53.766;9.626;2022-12-16T00:36:09;-0.80;99.90
12872;DHT22;6504;53.766;9.626;2022-12-16T00:38:37;-0.80;99.90
12872;DHT22;6504;53.766;9.626;2022-12-16T00:41:05;-0.80;99.90
12872;DHT22;6504;53.766;9.626;2022-12-16T00:43:33;-0.90;99.90
12872;DHT22;6504;53.766;9.626;2022-12-16T00:46:02;-0.90;99.90
12872;DHT22;6504;53.766;9.626;2022-12-16T00:48:31;-0.80;99.90
12872;DHT22;6504;53.766;9.626;2022-12-16T00:51:00;-0.90;99.90
12872;DHT22;6504;53.766;9.626;2022-12-16T00:53:28;-0.90;99.90
12872;DHT22;6504;53.766;9.626;2022-12-16T00:56:03;-0.80;99.90
12872;DHT22;6504;53.766;9.626;2022-12-16T00:58:32;-0.90;99.90
12872;DHT22;6504;53.766;9.626;2022-12-16T01:01:00;-0.90;99.90
12872;DHT22;6504;53.766;9.626;2022-12-16T01:03:28;-0.90;99.90
12872;DHT22;6504;53.766;9.626;2022-12-16T01:05:58;-0.80;99.90
12872;DHT22;6504;53.766;9.626;2022-12-16T01:08:26;-0.80;99.90
12872;DHT22;6504;53.766;9.626;2022-12-16T01:10:55;-0.80;99.90
12872;DHT22;6504;53.766;9.626;2022-12-16T01:13:24;-0.80;99.90
12872;DHT22;6504;53.766;9.626;2022-12-16T01:15:52;-0.80;99.90
12872;DHT22;6504;53.766;9.626;2022-12-16T01:18:20;-0.80;99.90
12872;DHT22;6504;53.766;9.626;2022-12-16T01:20:49;-0.80;99.90
12872;DHT22;6504;53.766;9.626;2022-12-16T01:23:18;-0.80;99.90
12872;DHT22;6504;53.766;9.626;2022-12-16T01:25:50;-0.80;99.90
12872;DHT22;6504;53.766;9.626;2022-12-16T01:28:19;-0.80;99.90
12872;DHT22;6504;53.766;9.626;2022-12-16T01:30:47;-0.80;99.90
12872;DHT22;6504;53.766;9.626;2022-12-16T01:33:15;-0.80;99.90
12872;DHT22;6504;53.766;9.626;2022-12-16T01:35:44;-0.80;99.90
12872;DHT22;6504;53.766;9.626;2022-12-16T01:38:23;-0.80;99.90
12872;DHT22;6504;53.766;9.626;2022-12-16T01:40:51;-0.80;99.90
12872;DHT22;6504;53.766;9.626;2022-12-16T01:43:24;-0.80;99.90
12872;DHT22;6504;53.766;9.626;2022-12-16T01:45:55;-0.80;99.90
12872;DHT22;6504;53.766;9.626;2022-12-16T01:48:32;-0.80;99.90
12872;DHT22;6504;53.766;9.626;2022-12-16T01:51:05;-0.80;99.90
12872;DHT22;6504;53.766;9.626;2022-12-16T01:53:37;-0.70;99.90
12872;DHT22;6504;53.766;9.626;2022-12-16T01:56:06;-0.70;99.90
12872;DHT22;6504;53.766;9.626;2022-12-16T01:58:37;-0.70;99.90
12872;DHT22;6504;53.766;9.626;2022-12-16T02:01:06;-0.70;99.90
12872;DHT22;6504;53.766;9.626;2022-12-16T02:03:35;-0.70;99.90
12872;DHT22;6504;53.766;9.626;2022-12-16T02:06:05;-0.70;99.90
12872;DHT22;6504;53.766;9.626;2022-12-16T02:08:35;-0.70;99.90
12872;DHT22;6504;53.766;9.626;2022-12-16T02:11:13;-0.70;99.90
12872;DHT22;6504;53.766;9.626;2022-12-16T02:14:07;-0.70;99.90
12872;DHT22;6504;53.766;9.626;2022-12-16T02:16:44;-0.70;99.90
12872;DHT22;6504;53.766;9.626;2022-12-16T02:22:24;-0.80;99.90
12872;DHT22;6504;53.766;9.626;2022-12-16T02:25:22;-0.80;99.90
12872;DHT22;6504;53.766;9.626;2022-12-16T02:28:02;-0.80;99.90
12872;DHT22;6504;53.766;9.626;2022-12-16T02:30:50;-0.70;99.90
12872;DHT22;6504;53.766;9.626;2022-12-16T02:33:33;-0.70;99.90
12872;DHT22;6504;53.766;9.626;2022-12-16T02:36:11;-0.70;99.90
12872;DHT22;6504;53.766;9.626;2022-12-16T02:38:48;-0.80;99.90
12872;DHT22;6504;53.766;9.626;2022-12-16T02:41:29;-0.80;99.90
12872;DHT22;6504;53.766;9.626;2022-12-16T02:44:02;-0.90;99.90
12872;DHT22;6504;53.766;9.626;2022-12-16T02:46:37;-0.90;99.90
12872;DHT22;6504;53.766;9.626;2022-12-16T02:49:07;-0.90;99.90
12872;DHT22;6504;53.766;9.626;2022-12-16T02:51:36;-0.90;99.90
12872;DHT22;6504;53.766;9.626;2022-12-16T02:54:06;-0.90;99.90
12872;DHT22;6504;53.766;9.626;2022-12-16T02:56:45;-0.90;99.90
12872;DHT22;6504;53.766;9.626;2022-12-16T02:59:20;-1.00;99.90
12872;DHT22;6504;53.766;9.626;2022-12-16T03:01:56;-1.00;99.90
12872;DHT22;6504;53.766;9.626;2022-12-16T03:04:33;-1.00;99.90
12872;DHT22;6504;53.766;9.626;2022-12-16T03:07:04;-0.90;99.90
12872;DHT22;6504;53.766;9.626;2022-12-16T03:09:36;-0.90;99.90
12872;DHT22;6504;53.766;9.626;2022-12-16T03:12:09;-0.90;99.90
12872;DHT22;6504;53.766;9.626;2022-12-16T03:14:41;-0.90;99.90
12872;DHT22;6504;53.766;9.626;2022-12-16T03:17:12;-0.90;99.90
12872;DHT22;6504;53.766;9.626;2022-12-16T03:19:42;-0.80;99.90
12872;DHT22;6504;53.766;9.626;2022-12-16T03:22:15;-0.80;99.90
12872;DHT22;6504;53.766;9.626;2022-12-16T03:24:45;-0.80;99.90
12872;DHT22;6504;53.766;9.626;2022-12-16T03:27:18;-0.90;99.90
12872;DHT22;6504;53.766;9.626;2022-12-16T03:29:52;-0.90;99.90
12872;DHT22;6504;53.766;9.626;2022-12-16T03:32:26;-0.90;99.90
12872;DHT22;6504;53.766;9.626;2022-12-16T03:34:59;-0.90;99.90
12872;DHT22;6504;53.766;9.626;2022-12-16T03:37:31;-0.90;99.90
12872;DHT22;6504;53.766;9.626;2022-12-16T03:40:03;-1.00;99.90
12872;DHT22;6504;53.766;9.626;2022-12-16T03:42:32;-1.00;99.90
12872;DHT22;6504;53.766;9.626;2022-12-16T03:45:02;-1.00;99.90
12872;DHT22;6504;53.766;9.626;2022-12-16T03:47:33;-1.10;99.90
12872;DHT22;6504;53.766;9.626;2022-12-16T03:50:01;-1.10;99.90
12872;DHT22;6504;53.766;9.626;2022-12-16T03:52:29;-1.10;99.90
12872;DHT22;6504;53.766;9.626;2022-12-16T03:54:57;-1.10;99.90
12872;DHT22;6504;53.766;9.626;2022-12-16T03:57:25;-1.10;99.90
12872;DHT22;6504;53.766;9.626;2022-12-16T03:59:53;-1.10;99.90
12872;DHT22;6504;53.766;9.626;2022-12-16T04:02:21;-1.00;99.90
12872;DHT22;6504;53.766;9.626;2022-12-16T04:04:51;-1.00;99.90
12872;DHT22;6504;53.766;9.626;2022-12-16T04:07:19;-1.00;99.90
12872;DHT22;6504;53.766;9.626;2022-12-16T04:09:48;-1.00;99.90
12872;DHT22;6504;53.766;9.626;2022-12-16T04:12:16;-1.00;99.90
12872;DHT22;6504;53.766;9.626;2022-12-16T04:15:02;-1.10;99.90
12872;DHT22;6504;53.766;9.626;2022-12-16T04:17:48;-1.10;99.90
12872;DHT22;6504;53.766;9.626;2022-12-16T04:20:36;-1.10;99.90
12872;DHT22;6504;53.766;9.626;2022-12-16T04:23:24;-1.20;99.90
12872;DHT22;6504;53.766;9.626;2022-12-16T04:26:10;-1.20;99.90
12872;DHT22;6504;53.766;9.626;2022-12-16T04:28:38;-1.20;99.90
12872;DHT22;6504;53.766;9.626;2022-12-16T04:31:07;-1.20;99.90
12872;DHT22;6504;53.766;9.626;2022-12-16T04:33:35;-1.20;99.90
12872;DHT22;6504;53.766;9.626;2022-12-16T04:36:22;-1.20;99.90
12872;DHT22;6504;53.766;9.626;2022-12-16T04:39:13;-1.30;99.90
12872;DHT22;6504;53.766;9.626;2022-12-16T04:42:04;-1.30;99.90
12872;DHT22;6504;53.766;9.626;2022-12-16T04:45:06;-1.30;99.90
12872;DHT22;6504;53.766;9.626;2022-12-16T04:47:52;-1.30;99.90
12872;DHT22;6504;53.766;9.626;2022-12-16T04:50:37;-1.20;99.90
12872;DHT22;6504;53.766;9.626;2022-12-16T04:53:24;-1.20;99.90
12872;DHT22;6504;53.766;9.626;2022-12-16T04:56:06;-1.20;99.90
12872;DHT22;6504;53.766;9.626;2022-12-16T04:58:52;-1.20;99.90
12872;DHT22;6504;53.766;9.626;2022-12-16T05:01:37;-1.30;99.90
12872;DHT22;6504;53.766;9.626;2022-12-16T05:04:23;-1.30;99.90
12872;DHT22;6504;53.766;9.626;2022-12-16T05:07:08;-1.30;99.90
12872;DHT22;6504;53.766;9.626;2022-12-16T05:10:01;-1.30;99.90
12872;DHT22;6504;53.766;9.626;2022-12-16T05:12:47;-1.30;99.90
12872;DHT22;6504;53.766;9.626;2022-12-16T05:15:32;-1.30;99.90
12872;DHT22;6504;53.766;9.626;2022-12-16T05:18:18;-1.30;99.90
12872;DHT22;6504;53.766;9.626;2022-12-16T05:21:04;-1.30;99.90
12872;DHT22;6504;53.766;9.626;2022-12-16T05:23:49;-1.30;99.90
12872;DHT22;6504;53.766;9.626;2022-12-16T05:26:36;-1.30;99.90
12872;DHT22;6504;53.766;9.626;2022-12-16T05:29:22;-1.40;99.90
12872;DHT22;6504;53.766;9.626;2022-12-16T05:32:08;-1.40;99.90
12872;DHT22;6504;53.766;9.626;2022-12-16T05:34:54;-1.40;99.90
12872;DHT22;6504;53.766;9.626;2022-12-16T05:37:39;-1.40;99.90
12872;DHT22;6504;53.766;9.626;2022-12-16T05:40:25;-1.50;99.90
12872;DHT22;6504;53.766;9.626;2022-12-16T05:43:14;-1.50;99.90
12872;DHT22;6504;53.766;9.626;2022-12-16T05:46:00;-1.50;99.90
12872;DHT22;6504;53.766;9.626;2022-12-16T05:48:47;-1.50;99.90
12872;DHT22;6504;53.766;9.626;2022-12-16T05:51:32;-1.50;99.90
12872;DHT22;6504;53.766;9.626;2022-12-16T05:54:18;-1.60;99.90
12872;DHT22;6504;53.766;9.626;2022-12-16T05:57:04;-1.70;99.90
12872;DHT22;6504;53.766;9.626;2022-12-16T05:59:50;-1.70;99.90
12872;DHT22;6504;53.766;9.626;2022-12-16T06:02:36;-1.70;99.90
12872;DHT22;6504;53.766;9.626;2022-12-16T06:05:22;-1.80;99.90
12872;DHT22;6504;53.766;9.626;2022-12-16T06:08:07;-1.90;99.90
12872;DHT22;6504;53.766;9.626;2022-12-16T06:10:52;-1.80;99.90
12872;DHT22;6504;53.766;9.626;2022-12-16T06:13:38;-1.90;99.90
12872;DHT22;6504;53.766;9.626;2022-12-16T06:16:25;-1.90;99.90
12872;DHT22;6504;53.766;9.626;2022-12-16T06:19:10;-1.80;99.90
12872;DHT22;6504;53.766;9.626;2022-12-16T06:21:56;-1.90;99.90
12872;DHT22;6504;53.766;9.626;2022-12-16T06:24:41;-1.90;99.90
12872;DHT22;6504;53.766;9.626;2022-12-16T06:27:27;-1.90;99.90
12872;DHT22;6504;53.766;9.626;2022-12-16T06:30:12;-1.90;99.90
12872;DHT22;6504;53.766;9.626;2022-12-16T06:33:00;-1.90;99.90
12872;DHT22;6504;53.766;9.626;2022-12-16T06:35:45;-1.90;99.90
12872;DHT22;6504;53.766;9.626;2022-12-16T06:38:30;-1.90;99.90
12872;DHT22;6504;53.766;9.626;2022-12-16T06:41:16;-2.00;99.90
12872;DHT22;6504;53.766;9.626;2022-12-16T06:44:02;-2.00;99.90
12872;DHT22;6504;53.766;9.626;2022-12-16T06:46:48;-2.00;99.90
12872;DHT22;6504;53.766;9.626;2022-12-16T06:49:35;-2.00;99.90
12872;DHT22;6504;53.766;9.626;2022-12-16T06:52:20;-2.00;99.90
12872;DHT22;6504;53.766;9.626;2022-12-16T06:55:06;-2.00;99.90
12872;DHT22;6504;53.766;9.626;2022-12-16T06:57:56;-2.00;99.90
12872;DHT22;6504;53.766;9.626;2022-12-16T07:00:42;-2.00;99.90
12872;DHT22;6504;53.766;9.626;2022-12-16T07:03:28;-1.90;99.90
12872;DHT22;6504;53.766;9.626;2022-12-16T07:06:15;-1.90;99.90
12872;DHT22;6504;53.766;9.626;2022-12-16T07:09:01;-1.90;99.90
12872;DHT22;6504;53.766;9.626;2022-12-16T07:11:46;-1.90;99.90
12872;DHT22;6504;53.766;9.626;2022-12-16T07:14:31;-1.90;99.90
12872;DHT22;6504;53.766;9.626;2022-12-16T07:17:17;-1.90;99.90
12872;DHT22;6504;53.766;9.626;2022-12-16T07:20:03;-1.90;99.90
12872;DHT22;6504;53.766;9.626;2022-12-16T07:22:51;-1.90;99.90
12872;DHT22;6504;53.766;9.626;2022-12-16T07:25:45;-1.90;99.90
12872;DHT22;6504;53.766;9.626;2022-12-16T07:28:30;-1.90;99.90
12872;DHT22;6504;53.766;9.626;2022-12-16T07:31:16;-1.80;99.90
12872;DHT22;6504;53.766;9.626;2022-12-16T07:34:01;-1.80;99.90
12872;DHT22;6504;53.766;9.626;2022-12-16T07:36:47;-1.80;99.90
12872;DHT22;6504;53.766;9.626;2022-12-16T07:39:34;-1.80;99.90
12872;DHT22;6504;53.766;9.626;2022-12-16T07:42:21;-1.80;99.90
12872;DHT22;6504;53.766;9.626;2022-12-16T07:45:07;-1.80;99.90
12872;DHT22;6504;53.766;9.626;2022-12-16T07:47:53;-1.80;99.90
12872;DHT22;6504;53.766;9.626;2022-12-16T07:50:39;-1.70;99.90
12872;DHT22;6504;53.766;9.626;2022-12-16T07:53:27;-1.70;99.90
12872;DHT22;6504;53.766;9.626;2022-12-16T07:56:14;-1.70;99.90
12872;DHT22;6504;53.766;9.626;2022-12-16T07:58:59;-1.70;99.90
12872;DHT22;6504;53.766;9.626;2022-12-16T08:01:45;-1.70;99.90
12872;DHT22;6504;53.766;9.626;2022-12-16T08:04:31;-1.70;99.90
12872;DHT22;6504;53.766;9.626;2022-12-16T08:07:16;-1.70;99.90
12872;DHT22;6504;53.766;9.626;2022-12-16T08:10:02;-1.70;99.90
12872;DHT22;6504;53.766;9.626;2022-12-16T08:12:49;-1.60;99.90
12872;DHT22;6504;53.766;9.626;2022-12-16T08:15:36;-1.60;99.90
12872;DHT22;6504;53.766;9.626;2022-12-16T08:18:22;-1.60;99.90
12872;DHT22;6504;53.766;9.626;2022-12-16T08:21:09;-1.60;99.90
12872;DHT22;6504;53.766;9.626;2022-12-16T08:23:58;-1.60;99.90
12872;DHT22;6504;53.766;9.626;2022-12-16T08:26:49;-1.60;99.90
12872;DHT22;6504;53.766;9.626;2022-12-16T08:29:41;-1.60;99.90
12872;DHT22;6504;53.766;9.626;2022-12-16T08:32:28;-1.50;99.90
12872;DHT22;6504;53.766;9.626;2022-12-16T08:35:26;-1.50;99.90
12872;DHT22;6504;53.766;9.626;2022-12-16T08:38:15;-1.50;99.90
12872;DHT22;6504;53.766;9.626;2022-12-16T08:41:04;-1.50;99.90
12872;DHT22;6504;53.766;9.626;2022-12-16T08:43:52;-1.40;99.90
12872;DHT22;6504;53.766;9.626;2022-12-16T08:46:45;-1.40;99.90
12872;DHT22;6504;53.766;9.626;2022-12-16T08:49:34;-1.50;99.90
12872;DHT22;6504;53.766;9.626;2022-12-16T08:52:29;-1.50;99.90
12872;DHT22;6504;53.766;9.626;2022-12-16T08:55:15;-1.50;99.90
12872;DHT22;6504;53.766;9.626;2022-12-16T08:58:02;-1.60;99.90
12872;DHT22;6504;53.766;9.626;2022-12-16T09:00:52;-1.60;99.90
12872;DHT22;6504;53.766;9.626;2022-12-16T09:03:39;-1.60;99.90
12872;DHT22;6504;53.766;9.626;2022-12-16T09:06:24;-1.60;99.90
12872;DHT22;6504;53.766;9.626;2022-12-16T09:09:10;-1.60;99.90
12872;DHT22;6504;53.766;9.626;2022-12-16T09:11:55;-1.60;99.90
12872;DHT22;6504;53.766;9.626;2022-12-16T09:14:41;-1.60;99.90
12872;DHT22;6504;53.766;9.626;2022-12-16T09:17:26;-1.60;99.90
12872;DHT22;6504;53.766;9.626;2022-12-16T09:20:13;-1.60;99.90
12872;DHT22;6504;53.766;9.626;2022-12-16T09:23:00;-1.60;99.90
12872;DHT22;6504;53.766;9.626;2022-12-16T09:25:46;-1.50;99.90
12872;DHT22;6504;53.766;9.626;2022-12-16T09:28:32;-1.60;99.90
12872;DHT22;6504;53.766;9.626;2022-12-16T09:31:18;-1.50;99.90
12872;DHT22;6504;53.766;9.626;2022-12-16T09:34:04;-1.50;99.90
12872;DHT22;6504;53.766;9.626;2022-12-16T09:36:51;-1.50;99.90
12872;DHT22;6504;53.766;9.626;2022-12-16T09:39:36;-1.50;99.90
12872;DHT22;6504;53.766;9.626;2022-12-16T09:42:27;-1.50;99.90
12872;DHT22;6504;53.766;9.626;2022-12-16T09:45:20;-1.50;99.90
12872;DHT22;6504;53.766;9.626;2022-12-16T09:48:14;-1.50;99.90
12872;DHT22;6504;53.766;9.626;2022-12-16T09:51:05;-1.50;99.90
12872;DHT22;6504;53.766;9.626;2022-12-16T09:53:55;-1.50;99.90
12872;DHT22;6504;53.766;9.626;2022-12-16T09:56:43;-1.50;99.90
12872;DHT22;6504;53.766;9.626;2022-12-16T09:59:33;-1.40;99.90
12872;DHT22;6504;53.766;9.626;2022-12-16T10:02:21;-1.40;99.90
12872;DHT22;6504;53.766;9.626;2022-12-16T10:05:11;-1.40;99.90
12872;DHT22;6504;53.766;9.626;2022-12-16T10:08:00;-1.40;99.90
12872;DHT22;6504;53.766;9.626;2022-12-16T10:10:55;-1.40;99.90
12872;DHT22;6504;53.766;9.626;2022-12-16T10:13:49;-1.40;99.90
12872;DHT22;6504;53.766;9.626;2022-12-16T10:16:52;-1.40;99.90
12872;DHT22;6504;53.766;9.626;2022-12-16T10:19:46;-1.40;99.90
12872;DHT22;6504;53.766;9.626;2022-12-16T10:22:39;-1.40;99.90
12872;DHT22;6504;53.766;9.626;2022-12-16T10:25:26;-1.40;99.90
12872;DHT22;6504;53.766;9.626;2022-12-16T10:28:16;-1.30;99.90
12872;DHT22;6504;53.766;9.626;2022-12-16T10:31:11;-1.30;99.90
12872;DHT22;6504;53.766;9.626;2022-12-16T10:33:57;-1.30;99.90
12872;DHT22;6504;53.766;9.626;2022-12-16T10:36:44;-1.30;99.90
12872;DHT22;6504;53.766;9.626;2022-12-16T10:39:39;-1.30;99.90
12872;DHT22;6504;53.766;9.626;2022-12-16T10:42:28;-1.30;99.90
12872;DHT22;6504;53.766;9.626;2022-12-16T10:45:21;-1.20;99.90
12872;DHT22;6504;53.766;9.626;2022-12-16T10:48:09;-1.20;99.90
12872;DHT22;6504;53.766;9.626;2022-12-16T10:50:59;-1.20;99.90
12872;DHT22;6504;53.766;9.626;2022-12-16T10:53:45;-1.20;99.90
12872;DHT22;6504;53.766;9.626;2022-12-16T10:56:46;-1.20;99.90
12872;DHT22;6504;53.766;9.626;2022-12-16T10:59:37;-1.10;99.90
12872;DHT22;6504;53.766;9.626;2022-12-16T11:02:25;-1.10;99.90
12872;DHT22;6504;53.766;9.626;2022-12-16T11:05:32;-1.10;99.90
12872;DHT22;6504;53.766;9.626;2022-12-16T11:08:26;-1.10;99.90
12872;DHT22;6504;53.766;9.626;2022-12-16T11:11:14;-1.10;99.90
12872;DHT22;6504;53.766;9.626;2022-12-16T11:14:20;-1.00;99.90
12872;DHT22;6504;53.766;9.626;2022-12-16T11:17:26;-1.00;99.90
12872;DHT22;6504;53.766;9.626;2022-12-16T11:20:14;-1.00;99.90
12872;DHT22;6504;53.766;9.626;2022-12-16T11:23:14;-1.00;99.90
12872;DHT22;6504;53.766;9.626;2022-12-16T11:26:09;-1.00;99.90
12872;DHT22;6504;53.766;9.626;2022-12-16T11:29:10;-0.90;99.90
12872;DHT22;6504;53.766;9.626;2022-12-16T11:31:59;-0.90;99.90
12872;DHT22;6504;53.766;9.626;2022-12-16T11:34:51;-0.90;99.90
12872;DHT22;6504;53.766;9.626;2022-12-16T11:37:39;-0.90;99.90
12872;DHT22;6504;53.766;9.626;2022-12-16T11:40:25;-0.90;99.90
12872;DHT22;6504;53.766;9.626;2022-12-16T11:43:14;-0.80;99.90
12872;DHT22;6504;53.766;9.626;2022-12-16T11:46:05;-0.80;99.90
12872;DHT22;6504;53.766;9.626;2022-12-16T11:48:57;-0.80;99.90
12872;DHT22;6504;53.766;9.626;2022-12-16T11:51:55;-0.70;99.90
12872;DHT22;6504;53.766;9.626;2022-12-16T11:55:06;-0.70;99.90
12872;DHT22;6504;53.766;9.626;2022-12-16T11:58:22;-0.70;99.90
12872;DHT22;6504;53.766;9.626;2022-12-16T12:01:13;-0.70;99.90
12872;DHT22;6504;53.766;9.626;2022-12-16T12:04:07;-0.70;99.90
12872;DHT22;6504;53.766;9.626;2022-12-16T12:07:16;-0.70;99.90
12872;DHT22;6504;53.766;9.626;2022-12-16T12:10:26;-0.70;99.90
12872;DHT22;6504;53.766;9.626;2022-12-16T12:13:25;-0.60;99.90
12872;DHT22;6504;53.766;9.626;2022-12-16T12:16:26;-0.60;99.90
12872;DHT22;6504;53.766;9.626;2022-12-16T12:19:18;-0.60;99.90
12872;DHT22;6504;53.766;9.626;2022-12-16T12:22:21;-0.60;99.90
12872;DHT22;6504;53.766;9.626;2022-12-16T12:25:19;-0.60;99.90
12872;DHT22;6504;53.766;9.626;2022-12-16T12:28:15;-0.60;99.90
12872;DHT22;6504;53.766;9.626;2022-12-16T12:31:15;-0.60;99.90
12872;DHT22;6504;53.766;9.626;2022-12-16T12:34:08;-0.60;99.90
12872;DHT22;6504;53.766;9.626;2022-12-16T12:37:03;-0.60;99.90
12872;DHT22;6504;53.766;9.626;2022-12-16T12:39:58;-0.60;99.90
12872;DHT22;6504;53.766;9.626;2022-12-16T12:42:48;-0.60;99.90
12872;DHT22;6504;53.766;9.626;2022-12-16T12:45:47;-0.60;99.90
12872;DHT22;6504;53.766;9.626;2022-12-16T12:48:46;-0.60;99.90
12872;DHT22;6504;53.766;9.626;2022-12-16T12:51:40;-0.60;99.90
12872;DHT22;6504;53.766;9.626;2022-12-16T12:54:32;-0.50;99.90
12872;DHT22;6504;53.766;9.626;2022-12-16T12:57:23;-0.50;99.90
12872;DHT22;6504;53.766;9.626;2022-12-16T13:00:15;-0.50;99.90
12872;DHT22;6504;53.766;9.626;2022-12-16T13:03:08;-0.50;99.90
12872;DHT22;6504;53.766;9.626;2022-12-16T13:05:58;-0.50;99.90
12872;DHT22;6504;53.766;9.626;2022-12-16T13:08:54;-0.50;99.90
12872;DHT22;6504;53.766;9.626;2022-12-16T13:15:06;-0.40;99.90
12872;DHT22;6504;53.766;9.626;2022-12-16T13:21:45;-0.40;99.90
12872;DHT22;6504;53.766;9.626;2022-12-16T13:24:40;-0.40;99.90
12872;DHT22;6504;53.766;9.626;2022-12-16T13:27:28;-0.40;99.90
12872;DHT22;6504;53.766;9.626;2022-12-16T13:30:21;-0.40;99.90
12872;DHT22;6504;53.766;9.626;2022-12-16T13:33:22;-0.40;99.90
12872;DHT22;6504;53.766;9.626;2022-12-16T13:36:09;-0.30;99.90
12872;DHT22;6504;53.766;9.626;2022-12-16T13:38:58;-0.30;99.90
12872;DHT22;6504;53.766;9.626;2022-12-16T13:41:48;-0.30;99.90
12872;DHT22;6504;53.766;9.626;2022-12-16T13:44:57;-0.30;99.90
12872;DHT22;6504;53.766;9.626;2022-12-16T13:48:02;-0.40;99.90
12872;DHT22;6504;53.766;9.626;2022-12-16T13:50:50;-0.30;99.90
12872;DHT22;6504;53.766;9.626;2022-12-16T13:53:49;-0.40;99.90
12872;DHT22;6504;53.766;9.626;2022-12-16T13:56:38;-0.30;99.90
12872;DHT22;6504;53.766;9.626;2022-12-16T13:59:27;-0.40;99.90
12872;DHT22;6504;53.766;9.626;2022-12-16T14:02:22;-0.40;99.90
12872;DHT22;6504;53.766;9.626;2022-12-16T14:05:18;-0.40;99.90
12872;DHT22;6504;53.766;9.626;2022-12-16T14:08:10;-0.40;99.90
12872;DHT22;6504;53.766;9.626;2022-12-16T14:11:00;-0.40;99.90
12872;DHT22;6504;53.766;9.626;2022-12-16T14:13:52;-0.40;99.90
12872;DHT22;6504;53.766;9.626;2022-12-16T14:16:45;-0.40;99.90
12872;DHT22;6504;53.766;9.626;2022-12-16T14:19:40;-0.40;99.90
12872;DHT22;6504;53.766;9.626;2022-12-16T14:22:43;-0.40;99.90
12872;DHT22;6504;53.766;9.626;2022-12-16T14:25:31;-0.50;99.90
12872;DHT22;6504;53.766;9.626;2022-12-16T14:28:29;-0.50;99.90
12872;DHT22;6504;53.766;9.626;2022-12-16T14:31:20;-0.50;99.90
12872;DHT22;6504;53.766;9.626;2022-12-16T14:34:12;-0.50;99.90
12872;DHT22;6504;53.766;9.626;2022-12-16T14:36:59;-0.50;99.90
12872;DHT22;6504;53.766;9.626;2022-12-16T14:39:51;-0.50;99.90
12872;DHT22;6504;53.766;9.626;2022-12-16T14:42:39;-0.50;99.90
12872;DHT22;6504;53.766;9.626;2022-12-16T14:45:28;-0.60;99.90
12872;DHT22;6504;53.766;9.626;2022-12-16T14:48:23;-0.60;99.90
12872;DHT22;6504;53.766;9.626;2022-12-16T14:51:24;-0.60;99.90
12872;DHT22;6504;53.766;9.626;2022-12-16T14:54:22;-0.60;99.90
12872;DHT22;6504;53.766;9.626;2022-12-16T14:57:15;-0.60;99.90
12872;DHT22;6504;53.766;9.626;2022-12-16T15:00:11;-0.60;99.90
12872;DHT22;6504;53.766;9.626;2022-12-16T15:03:00;-0.60;99.90
12872;DHT22;6504;53.766;9.626;2022-12-16T15:05:49;-0.60;99.90
12872;DHT22;6504;53.766;9.626;2022-12-16T15:08:39;-0.60;99.90
12872;DHT22;6504;53.766;9.626;2022-12-16T15:11:28;-0.60;99.90
12872;DHT22;6504;53.766;9.626;2022-12-16T15:14:19;-0.60;99.90
12872;DHT22;6504;53.766;9.626;2022-12-16T15:17:17;-0.60;99.90
12872;DHT22;6504;53.766;9.626;2022-12-16T15:20:08;-0.60;99.90
12872;DHT22;6504;53.766;9.626;2022-12-16T15:22:59;-0.60;99.90
12872;DHT22;6504;53.766;9.626;2022-12-16T15:25:49;-0.60;99.90
12872;DHT22;6504;53.766;9.626;2022-12-16T15:28:38;-0.60;99.90
12872;DHT22;6504;53.766;9.626;2022-12-16T15:31:29;-0.60;99.90
12872;DHT22;6504;53.766;9.626;2022-12-16T15:34:23;-0.60;99.90
12872;DHT22;6504;53.766;9.626;2022-12-16T15:37:18;-0.60;99.90
12872;DHT22;6504;53.766;9.626;2022-12-16T15:40:19;-0.70;99.90
12872;DHT22;6504;53.766;9.626;2022-12-16T15:43:05;-0.60;99.90
12872;DHT22;6504;53.766;9.626;2022-12-16T15:45:50;-0.60;99.90
12872;DHT22;6504;53.766;9.626;2022-12-16T15:48:37;-0.60;99.90
12872;DHT22;6504;53.766;9.626;2022-12-16T15:51:28;-0.60;99.90
12872;DHT22;6504;53.766;9.626;2022-12-16T15:54:16;-0.60;99.90
12872;DHT22;6504;53.766;9.626;2022-12-16T15:57:02;-0.50;99.90
12872;DHT22;6504;53.766;9.626;2022-12-16T16:00:19;-0.50;99.90
12872;DHT22;6504;53.766;9.626;2022-12-16T16:03:16;-0.60;99.90
12872;DHT22;6504;53.766;9.626;2022-12-16T16:06:15;-0.60;99.90
12872;DHT22;6504;53.766;9.626;2022-12-16T16:09:11;-0.60;99.90
12872;DHT22;6504;53.766;9.626;2022-12-16T16:11:56;-0.60;99.90
12872;DHT22;6504;53.766;9.626;2022-12-16T16:14:42;-0.60;99.90
12872;DHT22;6504;53.766;9.626;2022-12-16T16:17:28;-0.60;99.90
12872;DHT22;6504;53.766;9.626;2022-12-16T16:20:15;-0.60;99.90
12872;DHT22;6504;53.766;9.626;2022-12-16T16:23:03;-0.60;99.90
12872;DHT22;6504;53.766;9.626;2022-12-16T16:25:49;-0.60;99.90
12872;DHT22;6504;53.766;9.626;2022-12-16T16:28:36;-0.60;99.90
12872;DHT22;6504;53.766;9.626;2022-12-16T16:31:21;-0.60;99.90
12872;DHT22;6504;53.766;9.626;2022-12-16T16:34:12;-0.60;99.90
12872;DHT22;6504;53.766;9.626;2022-12-16T16:37:13;-0.60;99.90
12872;DHT22;6504;53.766;9.626;2022-12-16T16:40:04;-0.60;99.90
12872;DHT22;6504;53.766;9.626;2022-12-16T16:42:56;-0.60;99.90
12872;DHT22;6504;53.766;9.626;2022-12-16T16:45:42;-0.50;99.90
12872;DHT22;6504;53.766;9.626;2022-12-16T16:48:28;-0.60;99.90
12872;DHT22;6504;53.766;9.626;2022-12-16T16:51:13;-0.60;99.90
12872;DHT22;6504;53.766;9.626;2022-12-16T16:53:59;-0.60;99.90
12872;DHT22;6504;53.766;9.626;2022-12-16T16:56:46;-0.60;99.90
12872;DHT22;6504;53.766;9.626;2022-12-16T16:59:31;-0.60;99.90
12872;DHT22;6504;53.766;9.626;2022-12-16T17:02:19;-0.60;99.90
12872;DHT22;6504;53.766;9.626;2022-12-16T17:05:08;-0.60;99.90
12872;DHT22;6504;53.766;9.626;2022-12-16T17:07:54;-0.60;99.90
12872;DHT22;6504;53.766;9.626;2022-12-16T17:10:40;-0.60;99.90
12872;DHT22;6504;53.766;9.626;2022-12-16T17:13:27;-0.60;99.90
12872;DHT22;6504;53.766;9.626;2022-12-16T17:16:13;-0.60;99.90
12872;DHT22;6504;53.766;9.626;2022-12-16T17:19:00;-0.60;99.90
12872;DHT22;6504;53.766;9.626;2022-12-16T17:21:48;-0.60;99.90
12872;DHT22;6504;53.766;9.626;2022-12-16T17:24:33;-0.70;99.90
12872;DHT22;6504;53.766;9.626;2022-12-16T17:27:23;-0.60;99.90
12872;DHT22;6504;53.766;9.626;2022-12-16T17:30:15;-0.70;99.90
12872;DHT22;6504;53.766;9.626;2022-12-16T17:33:00;-0.70;99.90
12872;DHT22;6504;53.766;9.626;2022-12-16T17:35:47;-0.70;99.90
12872;DHT22;6504;53.766;9.626;2022-12-16T17:38:36;-0.70;99.90
12872;DHT22;6504;53.766;9.626;2022-12-16T17:41:22;-0.70;99.90
12872;DHT22;6504;53.766;9.626;2022-12-16T17:44:08;-0.70;99.90
12872;DHT22;6504;53.766;9.626;2022-12-16T17:46:55;-0.70;99.90
12872;DHT22;6504;53.766;9.626;2022-12-16T17:49:40;-0.70;99.90